sensor_id;sensor_type;location;lat;lon;timestamp;P1;durP1;ratioP1;P2;durP2;ratioP2
48522;SDS011;34315;50.150;11.070;2022-11-15T00:01:38;15.55;;;8.15;;
48522;SDS011;34315;50.150;11.070;2022-11-15T00:06:57;14.32;;;7.38;;
48522;SDS011;34315;50.150;11.070;2022-11-15T00:12:16;14.68;;;8.02;;
48522;SDS011;34315;50.150;11.070;2022-11-15T00:17:35;13.15;;;7.82;;
48522;SDS011;34315;50.150;11.070;2022-11-15T00:22:54;11.55;;;6.88;;
48522;SDS011;34315;50.150;11.070;2022-11-15T00:28:13;28.25;;;11.35;;
48522;SDS011;34315;50.150;11.070;2022-11-15T00:33:32;17.27;;;8.25;;
48522;SDS011;34315;50.150;11.070;2022-11-15T00:38:51;15.82;;;8.32;;
48522;SDS011;34315;50.150;11.070;2022-11-15T00:44:10;14.55;;;7.05;;
48522;SDS011;34315;50.150;11.070;2022-11-15T00:49:29;22.00;;;9.38;;
48522;SDS011;34315;50.150;11.070;2022-11-15T00:54:48;13.27;;;7.18;;
48522;SDS011;34315;50.150;11.070;2022-11-15T01:00:07;20.67;;;9.30;;
48522;SDS011;34315;50.150;11.070;2022-11-15T01:05:26;12.25;;;6.35;;
48522;SDS011;34315;50.150;11.070;2022-11-15T01:10:46;17.95;;;7.07;;
48522;SDS011;34315;50.150;11.070;2022-11-15T01:16:06;13.80;;;6.38;;
48522;SDS011;34315;50.150;11.070;2022-11-15T01:21:26;12.02;;;7.30;;
48522;SDS011;34315;50.150;11.070;2022-11-15T01:26:45;13.25;;;7.40;;
48522;SDS011;34315;50.150;11.070;2022-11-15T01:32:04;18.33;;;8.52;;
48522;SDS011;34315;50.150;11.070;2022-11-15T01:37:23;31.77;;;10.95;;
48522;SDS011;34315;50.150;11.070;2022-11-15T01:42:42;13.60;;;7.38;;
48522;SDS011;34315;50.150;11.070;2022-11-15T01:48:01;11.48;;;6.55;;
48522;SDS011;34315;50.150;11.070;2022-11-15T01:53:21;13.73;;;7.18;;
48522;SDS011;34315;50.150;11.070;2022-11-15T01:58:41;13.57;;;7.40;;
48522;SDS011;34315;50.150;11.070;2022-11-15T02:04:04;13.02;;;7.75;;
48522;SDS011;34315;50.150;11.070;2022-11-15T02:09:29;15.82;;;8.27;;
48522;SDS011;34315;50.150;11.070;2022-11-15T02:14:50;16.10;;;8.60;;
48522;SDS011;34315;50.150;11.070;2022-11-15T02:26:14;16.33;;;8.18;;
48522;SDS011;34315;50.150;11.070;2022-11-15T02:32:21;15.50;;;8.50;;
48522;SDS011;34315;50.150;11.070;2022-11-15T02:37:46;15.40;;;8.60;;
48522;SDS011;34315;50.150;11.070;2022-11-15T02:43:08;13.93;;;8.63;;
48522;SDS011;34315;50.150;11.070;2022-11-15T02:48:48;14.07;;;8.57;;
48522;SDS011;34315;50.150;11.070;2022-11-15T02:54:10;14.32;;;8.23;;
48522;SDS011;34315;50.150;11.070;2022-11-15T03:05:14;13.48;;;8.40;;
48522;SDS011;34315;50.150;11.070;2022-11-15T03:21:57;13.05;;;7.45;;
48522;SDS011;34315;50.150;11.070;2022-11-15T03:27:20;14.90;;;8.13;;
48522;SDS011;34315;50.150;11.070;2022-11-15T03:32:50;17.20;;;8.52;;
48522;SDS011;34315;50.150;11.070;2022-11-15T03:38:25;13.35;;;7.35;;
48522;SDS011;34315;50.150;11.070;2022-11-15T03:43:56;14.25;;;7.57;;
48522;SDS011;34315;50.150;11.070;2022-11-15T03:49:21;12.35;;;7.05;;
48522;SDS011;34315;50.150;11.070;2022-11-15T03:54:52;16.23;;;8.30;;
48522;SDS011;34315;50.150;11.070;2022-11-15T04:00:13;15.52;;;7.78;;
48522;SDS011;34315;50.150;11.070;2022-11-15T04:05:33;14.00;;;7.97;;
48522;SDS011;34315;50.150;11.070;2022-11-15T04:10:52;13.70;;;7.50;;
48522;SDS011;34315;50.150;11.070;2022-11-15T04:16:11;13.57;;;7.47;;
48522;SDS011;34315;50.150;11.070;2022-11-15T04:21:30;15.70;;;7.88;;
48522;SDS011;34315;50.150;11.070;2022-11-15T04:27:08;17.95;;;8.30;;
48522;SDS011;34315;50.150;11.070;2022-11-15T04:32:27;12.27;;;7.65;;
48522;SDS011;34315;50.150;11.070;2022-11-15T04:37:46;13.05;;;7.93;;
48522;SDS011;34315;50.150;11.070;2022-11-15T04:43:05;13.32;;;7.35;;
48522;SDS011;34315;50.150;11.070;2022-11-15T04:48:24;16.85;;;9.02;;
48522;SDS011;34315;50.150;11.070;2022-11-15T04:53:43;12.90;;;6.95;;
48522;SDS011;34315;50.150;11.070;2022-11-15T04:59:02;11.00;;;7.05;;
48522;SDS011;34315;50.150;11.070;2022-11-15T05:04:21;14.00;;;8.05;;
48522;SDS011;34315;50.150;11.070;2022-11-15T05:09:40;13.45;;;8.02;;
48522;SDS011;34315;50.150;11.070;2022-11-15T05:14:58;16.65;;;8.38;;
48522;SDS011;34315;50.150;11.070;2022-11-15T05:20:17;13.60;;;7.25;;
48522;SDS011;34315;50.150;11.070;2022-11-15T05:25:36;13.82;;;8.27;;
48522;SDS011;34315;50.150;11.070;2022-11-15T05:31:03;14.45;;;7.85;;
48522;SDS011;34315;50.150;11.070;2022-11-15T05:41:51;17.63;;;8.65;;
48522;SDS011;34315;50.150;11.070;2022-11-15T05:47:13;16.50;;;9.60;;
48522;SDS011;34315;50.150;11.070;2022-11-15T05:52:36;15.80;;;9.27;;
48522;SDS011;34315;50.150;11.070;2022-11-15T05:57:56;22.98;;;11.63;;
48522;SDS011;34315;50.150;11.070;2022-11-15T06:03:14;18.42;;;9.90;;
48522;SDS011;34315;50.150;11.070;2022-11-15T06:08:33;15.70;;;9.23;;
48522;SDS011;34315;50.150;11.070;2022-11-15T06:13:52;15.35;;;8.88;;
48522;SDS011;34315;50.150;11.070;2022-11-15T06:19:11;18.30;;;9.00;;
48522;SDS011;34315;50.150;11.070;2022-11-15T06:24:30;16.67;;;9.88;;
48522;SDS011;34315;50.150;11.070;2022-11-15T06:29:49;19.48;;;9.75;;
48522;SDS011;34315;50.150;11.070;2022-11-15T06:35:08;18.77;;;9.48;;
48522;SDS011;34315;50.150;11.070;2022-11-15T06:40:27;14.95;;;8.80;;
48522;SDS011;34315;50.150;11.070;2022-11-15T06:45:46;19.95;;;8.82;;
48522;SDS011;34315;50.150;11.070;2022-11-15T06:51:05;14.40;;;8.57;;
48522;SDS011;34315;50.150;11.070;2022-11-15T06:56:24;13.13;;;7.95;;
48522;SDS011;34315;50.150;11.070;2022-11-15T07:01:43;17.27;;;9.32;;
48522;SDS011;34315;50.150;11.070;2022-11-15T07:07:02;18.40;;;9.88;;
48522;SDS011;34315;50.150;11.070;2022-11-15T07:12:21;15.23;;;9.02;;
48522;SDS011;34315;50.150;11.070;2022-11-15T07:17:40;19.00;;;9.13;;
48522;SDS011;34315;50.150;11.070;2022-11-15T07:23:03;19.65;;;9.10;;
48522;SDS011;34315;50.150;11.070;2022-11-15T07:28:22;18.35;;;9.60;;
48522;SDS011;34315;50.150;11.070;2022-11-15T07:33:41;19.30;;;9.82;;
48522;SDS011;34315;50.150;11.070;2022-11-15T07:39:00;19.67;;;9.43;;
48522;SDS011;34315;50.150;11.070;2022-11-15T07:44:19;16.75;;;9.05;;
48522;SDS011;34315;50.150;11.070;2022-11-15T07:49:38;14.68;;;8.65;;
48522;SDS011;34315;50.150;11.070;2022-11-15T07:54:57;16.50;;;8.82;;
48522;SDS011;34315;50.150;11.070;2022-11-15T08:00:16;15.35;;;8.95;;
48522;SDS011;34315;50.150;11.070;2022-11-15T08:05:36;22.42;;;10.02;;
48522;SDS011;34315;50.150;11.070;2022-11-15T08:10:59;15.18;;;8.02;;
48522;SDS011;34315;50.150;11.070;2022-11-15T08:16:19;19.27;;;8.50;;
48522;SDS011;34315;50.150;11.070;2022-11-15T08:21:37;15.55;;;8.57;;
48522;SDS011;34315;50.150;11.070;2022-11-15T08:26:56;15.60;;;8.40;;
48522;SDS011;34315;50.150;11.070;2022-11-15T08:32:15;15.07;;;7.72;;
48522;SDS011;34315;50.150;11.070;2022-11-15T08:37:35;14.00;;;7.00;;
48522;SDS011;34315;50.150;11.070;2022-11-15T08:42:54;13.60;;;8.50;;
48522;SDS011;34315;50.150;11.070;2022-11-15T08:48:13;13.15;;;7.70;;
48522;SDS011;34315;50.150;11.070;2022-11-15T08:53:33;18.50;;;8.32;;
48522;SDS011;34315;50.150;11.070;2022-11-15T08:58:52;12.32;;;7.18;;
48522;SDS011;34315;50.150;11.070;2022-11-15T09:04:11;13.90;;;7.93;;
48522;SDS011;34315;50.150;11.070;2022-11-15T09:09:30;12.95;;;8.10;;
48522;SDS011;34315;50.150;11.070;2022-11-15T09:14:49;12.32;;;8.13;;
48522;SDS011;34315;50.150;11.070;2022-11-15T09:20:08;13.18;;;7.65;;
48522;SDS011;34315;50.150;11.070;2022-11-15T09:25:28;13.13;;;6.95;;
48522;SDS011;34315;50.150;11.070;2022-11-15T09:30:47;13.55;;;7.55;;
48522;SDS011;34315;50.150;11.070;2022-11-15T09:36:07;13.02;;;7.55;;
48522;SDS011;34315;50.150;11.070;2022-11-15T09:41:34;12.85;;;7.88;;
48522;SDS011;34315;50.150;11.070;2022-11-15T09:47:45;12.20;;;7.35;;
48522;SDS011;34315;50.150;11.070;2022-11-15T09:52:52;12.25;;;7.47;;
48522;SDS011;34315;50.150;11.070;2022-11-15T09:57:58;10.75;;;7.00;;
48522;SDS011;34315;50.150;11.070;2022-11-15T10:03:08;12.13;;;7.65;;
48522;SDS011;34315;50.150;11.070;2022-11-15T10:13:36;11.98;;;6.53;;
48522;SDS011;34315;50.150;11.070;2022-11-15T10:18:55;11.82;;;6.85;;
48522;SDS011;34315;50.150;11.070;2022-11-15T10:24:25;11.90;;;7.18;;
48522;SDS011;34315;50.150;11.070;2022-11-15T10:29:28;11.43;;;7.32;;
48522;SDS011;34315;50.150;11.070;2022-11-15T10:34:28;13.23;;;6.90;;
48522;SDS011;34315;50.150;11.070;2022-11-15T10:39:29;14.88;;;6.72;;
48522;SDS011;34315;50.150;11.070;2022-11-15T10:44:29;13.23;;;7.43;;
48522;SDS011;34315;50.150;11.070;2022-11-15T10:49:31;11.98;;;7.00;;
48522;SDS011;34315;50.150;11.070;2022-11-15T10:54:34;10.73;;;6.88;;
48522;SDS011;34315;50.150;11.070;2022-11-15T10:59:38;12.77;;;7.30;;
48522;SDS011;34315;50.150;11.070;2022-11-15T11:04:49;10.38;;;6.50;;
48522;SDS011;34315;50.150;11.070;2022-11-15T11:15:14;9.88;;;6.32;;
48522;SDS011;34315;50.150;11.070;2022-11-15T11:20:18;11.48;;;6.40;;
48522;SDS011;34315;50.150;11.070;2022-11-15T11:36:26;10.68;;;6.93;;
48522;SDS011;34315;50.150;11.070;2022-11-15T11:41:44;8.35;;;5.70;;
48522;SDS011;34315;50.150;11.070;2022-11-15T11:46:59;9.30;;;5.93;;
48522;SDS011;34315;50.150;11.070;2022-11-15T11:52:13;13.63;;;6.68;;
48522;SDS011;34315;50.150;11.070;2022-11-15T11:57:22;12.68;;;7.10;;
48522;SDS011;34315;50.150;11.070;2022-11-15T12:02:38;7.93;;;5.70;;
48522;SDS011;34315;50.150;11.070;2022-11-15T12:07:39;10.65;;;6.13;;
48522;SDS011;34315;50.150;11.070;2022-11-15T12:12:47;8.07;;;5.72;;
48522;SDS011;34315;50.150;11.070;2022-11-15T12:17:50;10.05;;;6.15;;
48522;SDS011;34315;50.150;11.070;2022-11-15T12:44:05;10.10;;;5.88;;
48522;SDS011;34315;50.150;11.070;2022-11-15T13:20:46;9.43;;;5.35;;
48522;SDS011;34315;50.150;11.070;2022-11-15T13:25:54;10.00;;;5.65;;
48522;SDS011;34315;50.150;11.070;2022-11-15T13:36:37;9.55;;;5.55;;
48522;SDS011;34315;50.150;11.070;2022-11-15T13:41:44;11.95;;;6.60;;
48522;SDS011;34315;50.150;11.070;2022-11-15T13:46:46;10.82;;;6.50;;
48522;SDS011;34315;50.150;11.070;2022-11-15T13:51:50;14.07;;;6.22;;
48522;SDS011;34315;50.150;11.070;2022-11-15T14:01:59;14.35;;;6.85;;
48522;SDS011;34315;50.150;11.070;2022-11-15T14:07:02;10.98;;;6.57;;
48522;SDS011;34315;50.150;11.070;2022-11-15T14:12:20;11.88;;;6.22;;
48522;SDS011;34315;50.150;11.070;2022-11-15T14:22:28;13.30;;;5.90;;
48522;SDS011;34315;50.150;11.070;2022-11-15T14:27:30;14.13;;;7.05;;
48522;SDS011;34315;50.150;11.070;2022-11-15T14:32:39;11.18;;;5.63;;
48522;SDS011;34315;50.150;11.070;2022-11-15T14:37:44;9.52;;;5.50;;
48522;SDS011;34315;50.150;11.070;2022-11-15T14:42:45;9.20;;;5.25;;
48522;SDS011;34315;50.150;11.070;2022-11-15T14:47:46;11.07;;;6.65;;
48522;SDS011;34315;50.150;11.070;2022-11-15T14:52:47;18.30;;;9.27;;
48522;SDS011;34315;50.150;11.070;2022-11-15T14:57:48;15.00;;;7.78;;
48522;SDS011;34315;50.150;11.070;2022-11-15T15:02:49;13.57;;;7.43;;
48522;SDS011;34315;50.150;11.070;2022-11-15T15:07:51;15.52;;;8.52;;
48522;SDS011;34315;50.150;11.070;2022-11-15T15:12:53;17.30;;;9.63;;
48522;SDS011;34315;50.150;11.070;2022-11-15T15:17:53;16.15;;;8.43;;
48522;SDS011;34315;50.150;11.070;2022-11-15T15:22:54;16.75;;;7.85;;
48522;SDS011;34315;50.150;11.070;2022-11-15T15:27:54;14.25;;;7.55;;
48522;SDS011;34315;50.150;11.070;2022-11-15T15:32:55;10.95;;;7.35;;
48522;SDS011;34315;50.150;11.070;2022-11-15T15:37:55;11.65;;;7.10;;
48522;SDS011;34315;50.150;11.070;2022-11-15T15:42:56;22.13;;;8.60;;
48522;SDS011;34315;50.150;11.070;2022-11-15T15:47:56;14.13;;;8.20;;
48522;SDS011;34315;50.150;11.070;2022-11-15T15:52:58;12.38;;;7.28;;
48522;SDS011;34315;50.150;11.070;2022-11-15T15:57:59;25.15;;;9.32;;
48522;SDS011;34315;50.150;11.070;2022-11-15T16:03:00;19.42;;;8.65;;
48522;SDS011;34315;50.150;11.070;2022-11-15T16:08:00;104.63;;;25.83;;
48522;SDS011;34315;50.150;11.070;2022-11-15T16:13:00;29.08;;;12.07;;
48522;SDS011;34315;50.150;11.070;2022-11-15T16:18:01;49.70;;;16.25;;
48522;SDS011;34315;50.150;11.070;2022-11-15T16:23:03;58.78;;;18.90;;
48522;SDS011;34315;50.150;11.070;2022-11-15T16:28:04;37.08;;;13.82;;
48522;SDS011;34315;50.150;11.070;2022-11-15T16:33:09;16.77;;;8.48;;
48522;SDS011;34315;50.150;11.070;2022-11-15T16:38:13;13.52;;;8.07;;
48522;SDS011;34315;50.150;11.070;2022-11-15T16:43:14;14.68;;;8.60;;
48522;SDS011;34315;50.150;11.070;2022-11-15T16:48:20;13.43;;;7.25;;
48522;SDS011;34315;50.150;11.070;2022-11-15T16:53:27;13.32;;;7.93;;
48522;SDS011;34315;50.150;11.070;2022-11-15T16:58:27;15.70;;;8.13;;
48522;SDS011;34315;50.150;11.070;2022-11-15T17:03:28;22.05;;;9.50;;
48522;SDS011;34315;50.150;11.070;2022-11-15T17:08:30;13.65;;;7.60;;
48522;SDS011;34315;50.150;11.070;2022-11-15T17:13:31;12.40;;;8.00;;
48522;SDS011;34315;50.150;11.070;2022-11-15T17:18:33;15.20;;;7.68;;
48522;SDS011;34315;50.150;11.070;2022-11-15T17:23:34;12.63;;;7.30;;
48522;SDS011;34315;50.150;11.070;2022-11-15T17:28:34;16.27;;;8.00;;
48522;SDS011;34315;50.150;11.070;2022-11-15T17:33:35;13.70;;;8.02;;
48522;SDS011;34315;50.150;11.070;2022-11-15T17:38:36;16.83;;;9.40;;
48522;SDS011;34315;50.150;11.070;2022-11-15T17:43:36;17.73;;;9.80;;
48522;SDS011;34315;50.150;11.070;2022-11-15T17:48:37;15.15;;;9.27;;
48522;SDS011;34315;50.150;11.070;2022-11-15T17:53:38;12.80;;;8.45;;
48522;SDS011;34315;50.150;11.070;2022-11-15T17:58:40;15.25;;;9.20;;
48522;SDS011;34315;50.150;11.070;2022-11-15T18:03:41;19.17;;;9.70;;
48522;SDS011;34315;50.150;11.070;2022-11-15T18:08:42;15.70;;;9.85;;
48522;SDS011;34315;50.150;11.070;2022-11-15T18:13:44;15.07;;;9.35;;
48522;SDS011;34315;50.150;11.070;2022-11-15T18:18:45;19.83;;;11.98;;
48522;SDS011;34315;50.150;11.070;2022-11-15T18:23:46;19.52;;;10.68;;
48522;SDS011;34315;50.150;11.070;2022-11-15T18:28:47;14.13;;;9.35;;
48522;SDS011;34315;50.150;11.070;2022-11-15T18:33:49;17.40;;;9.30;;
48522;SDS011;34315;50.150;11.070;2022-11-15T18:38:53;14.90;;;9.75;;
48522;SDS011;34315;50.150;11.070;2022-11-15T18:43:58;16.38;;;10.10;;
48522;SDS011;34315;50.150;11.070;2022-11-15T18:49:00;13.75;;;8.73;;
48522;SDS011;34315;50.150;11.070;2022-11-15T18:54:01;20.42;;;10.40;;
48522;SDS011;34315;50.150;11.070;2022-11-15T18:59:02;21.15;;;12.02;;
48522;SDS011;34315;50.150;11.070;2022-11-15T19:04:08;16.98;;;9.75;;
48522;SDS011;34315;50.150;11.070;2022-11-15T19:09:12;17.65;;;10.07;;
48522;SDS011;34315;50.150;11.070;2022-11-15T19:14:14;21.13;;;10.02;;
48522;SDS011;34315;50.150;11.070;2022-11-15T19:19:20;17.55;;;10.23;;
48522;SDS011;34315;50.150;11.070;2022-11-15T19:24:24;18.77;;;9.43;;
48522;SDS011;34315;50.150;11.070;2022-11-15T19:29:26;23.73;;;11.02;;
48522;SDS011;34315;50.150;11.070;2022-11-15T19:34:26;19.33;;;9.73;;
48522;SDS011;34315;50.150;11.070;2022-11-15T19:39:27;19.92;;;10.73;;
48522;SDS011;34315;50.150;11.070;2022-11-15T19:44:27;15.10;;;8.73;;
48522;SDS011;34315;50.150;11.070;2022-11-15T19:49:27;17.67;;;8.45;;
48522;SDS011;34315;50.150;11.070;2022-11-15T19:54:28;15.02;;;7.93;;
48522;SDS011;34315;50.150;11.070;2022-11-15T19:59:28;14.10;;;7.70;;
48522;SDS011;34315;50.150;11.070;2022-11-15T20:04:29;14.80;;;7.80;;
48522;SDS011;34315;50.150;11.070;2022-11-15T20:09:29;12.57;;;6.32;;
48522;SDS011;34315;50.150;11.070;2022-11-15T20:14:30;17.42;;;7.85;;
48522;SDS011;34315;50.150;11.070;2022-11-15T20:19:30;13.48;;;8.00;;
48522;SDS011;34315;50.150;11.070;2022-11-15T20:24:31;12.00;;;7.38;;
48522;SDS011;34315;50.150;11.070;2022-11-15T20:29:31;14.20;;;8.02;;
48522;SDS011;34315;50.150;11.070;2022-11-15T20:34:32;13.88;;;7.13;;
48522;SDS011;34315;50.150;11.070;2022-11-15T20:39:32;12.85;;;7.25;;
48522;SDS011;34315;50.150;11.070;2022-11-15T20:44:33;12.13;;;5.32;;
48522;SDS011;34315;50.150;11.070;2022-11-15T20:49:34;11.95;;;6.07;;
48522;SDS011;34315;50.150;11.070;2022-11-15T20:54:34;10.02;;;5.40;;
48522;SDS011;34315;50.150;11.070;2022-11-15T20:59:35;11.98;;;5.68;;
48522;SDS011;34315;50.150;11.070;2022-11-15T21:04:35;12.57;;;6.30;;
48522;SDS011;34315;50.150;11.070;2022-11-15T21:09:35;10.80;;;5.40;;
48522;SDS011;34315;50.150;11.070;2022-11-15T21:14:54;10.10;;;5.25;;
48522;SDS011;34315;50.150;11.070;2022-11-15T21:19:55;12.10;;;5.15;;
48522;SDS011;34315;50.150;11.070;2022-11-15T21:24:55;9.05;;;5.20;;
48522;SDS011;34315;50.150;11.070;2022-11-15T21:29:58;7.90;;;4.32;;
48522;SDS011;34315;50.150;11.070;2022-11-15T21:34:58;10.27;;;4.80;;
48522;SDS011;34315;50.150;11.070;2022-11-15T21:40:00;9.82;;;5.32;;
48522;SDS011;34315;50.150;11.070;2022-11-15T21:45:00;9.15;;;4.97;;
48522;SDS011;34315;50.150;11.070;2022-11-15T21:50:01;8.65;;;4.80;;
48522;SDS011;34315;50.150;11.070;2022-11-15T21:55:01;8.20;;;4.45;;
48522;SDS011;34315;50.150;11.070;2022-11-15T22:00:03;10.98;;;4.95;;
48522;SDS011;34315;50.150;11.070;2022-11-15T22:05:22;12.82;;;5.10;;
48522;SDS011;34315;50.150;11.070;2022-11-15T22:10:22;9.38;;;4.82;;
48522;SDS011;34315;50.150;11.070;2022-11-15T22:15:23;9.68;;;5.00;;
48522;SDS011;34315;50.150;11.070;2022-11-15T22:20:23;9.40;;;5.10;;
48522;SDS011;34315;50.150;11.070;2022-11-15T22:25:24;8.27;;;4.82;;
48522;SDS011;34315;50.150;11.070;2022-11-15T22:30:25;12.30;;;5.15;;
48522;SDS011;34315;50.150;11.070;2022-11-15T22:35:25;8.30;;;4.60;;
48522;SDS011;34315;50.150;11.070;2022-11-15T22:40:26;12.30;;;5.45;;
48522;SDS011;34315;50.150;11.070;2022-11-15T22:45:26;14.00;;;5.32;;
48522;SDS011;34315;50.150;11.070;2022-11-15T22:50:27;10.15;;;4.95;;
48522;SDS011;34315;50.150;11.070;2022-11-15T22:55:27;13.82;;;5.82;;
48522;SDS011;34315;50.150;11.070;2022-11-15T23:00:27;9.85;;;5.10;;
48522;SDS011;34315;50.150;11.070;2022-11-15T23:05:28;12.70;;;4.90;;
48522;SDS011;34315;50.150;11.070;2022-11-15T23:10:28;14.32;;;5.90;;
48522;SDS011;34315;50.150;11.070;2022-11-15T23:15:48;11.23;;;5.10;;
48522;SDS011;34315;50.150;11.070;2022-11-15T23:21:09;10.25;;;4.85;;
48522;SDS011;34315;50.150;11.070;2022-11-15T23:26:14;9.48;;;4.60;;
48522;SDS011;34315;50.150;11.070;2022-11-15T23:31:15;9.57;;;4.70;;
48522;SDS011;34315;50.150;11.070;2022-11-15T23:36:33;10.38;;;4.78;;
48522;SDS011;34315;50.150;11.070;2022-11-15T23:41:34;10.60;;;5.05;;
48522;SDS011;34315;50.150;11.070;2022-11-15T23:46:34;11.68;;;4.32;;
48522;SDS011;34315;50.150;11.070;2022-11-15T23:51:35;8.82;;;3.78;;
48522;SDS011;34315;50.150;11.070;2022-11-15T23:56:35;8.27;;;4.80;;
